createdAt,value
2023-03-31T03:02:09.669Z,1.83
2023-03-31T03:05:00.045Z,1.80
2023-03-31T03:07:35.598Z,1.90
2023-03-31T03:10:09.062Z,1.50
2023-03-31T03:12:46.012Z,1.52
2023-03-31T03:15:17.901Z,1.77
2023-03-31T03:17:49.340Z,1.80
2023-03-31T03:20:19.923Z,2.00
2023-03-31T03:22:47.790Z,1.88
2023-03-31T03:25:18.076Z,2.10
2023-03-31T03:27:46.061Z,2.30
2023-03-31T03:30:15.309Z,2.05
2023-03-31T03:32:43.577Z,2.00
2023-03-31T03:35:13.071Z,1.95
2023-03-31T03:37:40.931Z,2.10
2023-03-31T03:40:10.509Z,1.63
2023-03-31T03:42:38.509Z,2.03
2023-03-31T03:45:07.754Z,3.50
2023-03-31T03:47:36.707Z,3.28
2023-03-31T03:50:05.758Z,2.97
2023-03-31T03:52:35.422Z,2.35
2023-03-31T03:55:03.498Z,2.70
2023-03-31T03:57:31.478Z,2.70
2023-03-31T03:59:59.442Z,2.72
2023-03-31T04:02:28.632Z,2.67
2023-03-31T04:04:56.758Z,2.60
2023-03-31T04:07:24.859Z,2.47
2023-03-31T04:09:54.016Z,2.50
2023-03-31T04:12:21.849Z,2.50
2023-03-31T04:14:49.673Z,2.58
2023-03-31T04:17:17.486Z,2.10
2023-03-31T04:19:50.671Z,2.80
2023-03-31T04:22:20.532Z,2.85
2023-03-31T04:24:52.719Z,3.00
2023-03-31T04:27:23.002Z,3.00
2023-03-31T04:29:54.780Z,2.40
2023-03-31T04:32:23.064Z,2.00
2023-03-31T04:34:51.550Z,2.42
2023-03-31T04:37:19.428Z,2.80
2023-03-31T04:39:50.492Z,2.63
2023-03-31T04:42:18.348Z,2.40
2023-03-31T04:44:47.510Z,3.50
2023-03-31T04:47:15.355Z,3.50
2023-03-31T04:49:43.182Z,2.92
2023-03-31T04:52:11.023Z,2.42
2023-03-31T04:54:38.833Z,2.40
2023-03-31T04:57:06.782Z,2.72
2023-03-31T04:59:34.643Z,3.30
2023-03-31T05:02:03.929Z,3.35
2023-03-31T05:04:31.874Z,3.03
2023-03-31T05:06:59.800Z,2.80
2023-03-31T05:09:27.718Z,3.00
2023-03-31T05:11:55.586Z,3.15
2023-03-31T05:14:23.592Z,2.92
2023-03-31T05:16:51.530Z,2.72
2023-03-31T05:19:20.717Z,2.67
2023-03-31T05:21:48.936Z,2.63
2023-03-31T05:24:16.777Z,2.00
2023-03-31T05:26:48.347Z,2.00
2023-03-31T05:29:16.616Z,2.17
2023-03-31T05:31:44.509Z,2.30
2023-03-31T05:34:12.382Z,1.92
2023-03-31T05:36:43.280Z,2.78
2023-03-31T05:39:11.385Z,2.40
2023-03-31T05:41:39.212Z,2.03
2023-03-31T05:44:07.333Z,2.40
2023-03-31T05:46:35.235Z,2.50
2023-03-31T05:49:03.288Z,2.35
2023-03-31T05:51:31.486Z,2.70
2023-03-31T05:54:00.690Z,2.67
2023-03-31T05:56:28.516Z,2.35
2023-03-31T05:58:57.598Z,2.40
2023-03-31T06:01:25.837Z,1.85
2023-03-31T06:03:53.842Z,2.30
2023-03-31T06:06:22.128Z,2.30
2023-03-31T06:08:50.871Z,2.30
2023-03-31T06:11:21.586Z,2.30
2023-03-31T06:13:50.377Z,2.13
2023-03-31T06:16:18.743Z,2.10
2023-03-31T06:18:46.928Z,1.90
2023-03-31T06:21:17.288Z,2.08
2023-03-31T06:23:46.059Z,2.10
2023-03-31T06:26:15.874Z,2.03
2023-03-31T06:28:45.947Z,2.05
2023-03-31T06:31:15.833Z,1.85
2023-03-31T06:33:44.644Z,2.20
2023-03-31T06:36:15.600Z,1.80
2023-03-31T06:38:43.604Z,1.73
2023-03-31T06:41:14.668Z,1.92
2023-03-31T06:43:42.692Z,1.90
2023-03-31T06:46:12.712Z,1.80
2023-03-31T06:48:41.214Z,2.20
2023-03-31T06:51:10.954Z,1.90
2023-03-31T06:53:38.835Z,2.10
2023-03-31T06:56:07.395Z,2.25
2023-03-31T06:58:35.493Z,2.65
2023-03-31T07:01:04.410Z,3.08
2023-03-31T07:03:34.464Z,2.50
2023-03-31T07:06:02.576Z,2.42
2023-03-31T07:08:30.417Z,2.40
2023-03-31T07:11:00.293Z,2.20
2023-03-31T07:13:28.679Z,1.88
2023-03-31T07:15:56.930Z,2.53
2023-03-31T07:18:34.344Z,2.42
2023-03-31T07:21:09.065Z,2.35
2023-03-31T07:23:38.089Z,2.45
2023-03-31T07:26:06.399Z,2.38
2023-03-31T07:28:34.483Z,2.20
2023-03-31T07:31:02.299Z,2.03
2023-03-31T07:33:30.184Z,2.17
2023-03-31T07:36:10.729Z,2.30
2023-03-31T07:38:41.829Z,2.40
2023-03-31T07:41:11.839Z,2.75
2023-03-31T07:43:39.726Z,2.38
2023-03-31T07:46:14.473Z,2.97
2023-03-31T07:48:43.827Z,2.30
2023-03-31T07:51:11.710Z,1.98
2023-03-31T07:53:41.220Z,1.65
2023-03-31T07:56:09.157Z,1.65
2023-03-31T07:58:37.253Z,1.75
2023-03-31T08:01:05.793Z,1.73
2023-03-31T08:03:34.399Z,1.48
2023-03-31T08:06:02.497Z,1.60
2023-03-31T08:08:30.584Z,1.60
2023-03-31T08:10:59.846Z,1.40
2023-03-31T08:13:27.728Z,1.55
2023-03-31T08:15:55.541Z,1.30
2023-03-31T08:18:23.507Z,1.23
2023-03-31T08:20:51.350Z,1.33
2023-03-31T08:23:19.319Z,1.17
2023-03-31T08:25:47.279Z,1.40
2023-03-31T08:28:17.089Z,1.60
2023-03-31T08:30:46.219Z,1.30
2023-03-31T08:33:14.175Z,1.70
2023-03-31T08:35:42.048Z,1.38
2023-03-31T08:38:09.917Z,1.45
2023-03-31T08:40:41.788Z,1.45
2023-03-31T08:43:15.392Z,1.27
2023-03-31T08:45:47.386Z,1.50
2023-03-31T08:48:25.516Z,1.30
2023-03-31T08:50:56.747Z,1.40
2023-03-31T08:53:29.485Z,1.52
2023-03-31T08:55:58.881Z,1.40
2023-03-31T08:58:35.811Z,1.60
2023-03-31T09:01:13.845Z,1.40
2023-03-31T09:03:51.962Z,1.50
2023-03-31T09:06:28.059Z,1.73
2023-03-31T09:09:03.155Z,1.80
2023-03-31T09:11:36.824Z,1.77
2023-03-31T09:14:17.530Z,1.95
2023-03-31T09:16:55.199Z,1.70
2023-03-31T09:19:38.044Z,1.70
2023-03-31T09:22:11.103Z,1.92
2023-03-31T09:24:48.459Z,1.98
2023-03-31T09:27:16.422Z,1.77
2023-03-31T09:29:55.145Z,2.08
2023-03-31T09:32:26.748Z,1.92
2023-03-31T09:35:02.047Z,1.92
2023-03-31T09:37:33.656Z,2.13
2023-03-31T09:40:07.500Z,2.10
2023-03-31T09:42:36.170Z,2.10
2023-03-31T09:45:06.965Z,2.60
2023-03-31T09:47:42.952Z,2.33
2023-03-31T09:50:14.272Z,1.90
2023-03-31T09:52:46.968Z,1.83
2023-03-31T09:55:38.210Z,1.83
2023-03-31T09:58:09.198Z,1.90
2023-03-31T10:00:42.996Z,1.90
2023-03-31T10:03:14.920Z,2.30
2023-03-31T10:05:50.857Z,1.88
2023-03-31T10:08:26.250Z,1.70
2023-03-31T10:11:11.323Z,1.50
2023-03-31T10:13:46.783Z,1.90
2023-03-31T10:16:21.670Z,1.65
2023-03-31T10:18:51.040Z,1.63
2023-03-31T10:21:24.493Z,1.42
2023-03-31T10:23:53.382Z,1.30
2023-03-31T10:26:29.199Z,1.58
2023-03-31T10:28:59.179Z,2.40
2023-03-31T10:31:34.770Z,1.55
2023-03-31T10:34:08.922Z,1.65
2023-03-31T10:36:39.375Z,1.42
2023-03-31T10:39:16.463Z,1.50
2023-03-31T10:41:44.849Z,1.73
2023-03-31T10:44:32.594Z,1.45
2023-03-31T10:47:06.984Z,1.52
2023-03-31T10:49:41.454Z,1.58
2023-03-31T10:52:22.925Z,2.40
2023-03-31T10:54:56.384Z,1.80
2023-03-31T10:57:38.627Z,1.60
2023-03-31T11:00:25.530Z,1.63
2023-03-31T11:03:23.228Z,1.40
2023-03-31T11:06:01.783Z,1.20
2023-03-31T11:08:49.122Z,1.50
2023-03-31T11:11:38.946Z,1.60
2023-03-31T11:14:15.082Z,1.33
2023-03-31T11:16:51.154Z,1.50
2023-03-31T11:19:30.362Z,1.40
2023-03-31T11:22:09.680Z,1.67
2023-03-31T11:24:58.065Z,1.75
2023-03-31T11:27:39.864Z,1.70
2023-03-31T11:30:14.578Z,1.70
2023-03-31T11:32:51.688Z,1.95
2023-03-31T11:35:36.697Z,1.83
2023-03-31T11:38:35.732Z,1.67
2023-03-31T11:41:09.014Z,1.98
2023-03-31T11:43:43.783Z,1.80
2023-03-31T11:46:16.335Z,1.95
2023-03-31T11:48:57.304Z,2.10
2023-03-31T11:51:29.042Z,1.90
2023-03-31T11:54:06.416Z,2.15
2023-03-31T11:56:39.282Z,2.15
2023-03-31T11:59:13.553Z,2.25
2023-03-31T12:01:49.363Z,1.80
2023-03-31T12:04:26.589Z,2.60
2023-03-31T12:07:02.554Z,2.45
2023-03-31T12:09:39.687Z,2.40
2023-03-31T12:12:13.997Z,1.52
2023-03-31T12:14:49.213Z,1.70
2023-03-31T12:17:21.185Z,2.40
2023-03-31T12:19:51.403Z,2.00
2023-03-31T12:22:25.710Z,1.70
2023-03-31T12:24:55.250Z,2.00
2023-03-31T12:27:28.618Z,1.55
2023-03-31T12:29:59.749Z,1.25
2023-03-31T12:32:31.917Z,1.63
2023-03-31T12:35:03.322Z,1.63
2023-03-31T12:38:11.899Z,1.65
2023-03-31T12:40:51.623Z,1.55
2023-03-31T12:43:45.329Z,1.58
2023-03-31T12:46:30.055Z,1.50
2023-03-31T12:49:21.900Z,1.52
2023-03-31T12:51:59.131Z,1.73
2023-03-31T12:54:58.734Z,1.80
2023-03-31T12:57:28.548Z,1.25
2023-03-31T13:00:21.513Z,1.73
2023-03-31T13:02:50.324Z,1.60
2023-03-31T13:05:50.275Z,1.50
2023-03-31T13:08:57.082Z,1.10
2023-03-31T13:11:39.224Z,1.10
2023-03-31T13:14:15.110Z,0.90
2023-03-31T13:16:43.266Z,1.10
2023-03-31T13:19:14.431Z,0.82
2023-03-31T13:21:54.952Z,0.90
2023-03-31T13:24:24.410Z,0.80
2023-03-31T13:26:54.113Z,1.05
2023-03-31T13:29:27.519Z,0.43
2023-03-31T13:32:21.247Z,0.55
2023-03-31T13:34:55.602Z,0.50
2023-03-31T13:37:37.989Z,0.75
2023-03-31T13:40:29.350Z,0.50
2023-03-31T13:43:11.275Z,1.05
2023-03-31T13:46:13.187Z,0.70
2023-03-31T13:48:52.925Z,1.00
2023-03-31T13:51:51.438Z,0.70
2023-03-31T13:54:49.713Z,1.10
2023-03-31T13:57:46.623Z,1.40
2023-03-31T14:00:33.779Z,1.13
2023-03-31T14:03:23.877Z,1.00
2023-03-31T14:05:58.013Z,1.08
2023-03-31T14:08:38.566Z,0.85
2023-03-31T14:11:19.800Z,1.27
2023-03-31T14:14:00.718Z,1.45
2023-03-31T14:16:32.208Z,1.20
2023-03-31T14:19:11.592Z,1.10
2023-03-31T14:22:08.343Z,1.13
2023-03-31T14:24:42.694Z,1.27
2023-03-31T14:27:29.222Z,1.20
2023-03-31T14:30:08.082Z,1.30
2023-03-31T14:33:14.170Z,1.40
2023-03-31T14:36:12.328Z,1.35
2023-03-31T14:38:41.677Z,1.45
2023-03-31T14:41:20.076Z,1.35
2023-03-31T14:43:51.074Z,1.70
2023-03-31T14:46:22.485Z,1.88
2023-03-31T14:48:53.439Z,1.30
2023-03-31T14:51:27.947Z,0.73
2023-03-31T14:54:01.234Z,0.77
2023-03-31T14:56:36.166Z,0.80
2023-03-31T14:59:05.786Z,1.13
2023-03-31T15:01:37.633Z,0.88
2023-03-31T15:04:10.091Z,1.45
2023-03-31T15:06:39.946Z,1.35
2023-03-31T15:09:13.963Z,1.30
2023-03-31T15:11:41.882Z,1.30
2023-03-31T15:14:11.287Z,1.35
2023-03-31T15:16:42.895Z,1.27
2023-03-31T15:19:16.930Z,1.00
2023-03-31T15:21:45.870Z,1.20
2023-03-31T15:24:15.784Z,0.82
2023-03-31T15:26:49.296Z,0.77
2023-03-31T15:29:24.617Z,1.10
2023-03-31T15:31:52.767Z,1.00
2023-03-31T15:34:27.214Z,1.02
2023-03-31T15:36:56.705Z,0.90
2023-03-31T15:39:27.681Z,1.27
2023-03-31T15:41:56.481Z,1.00
2023-03-31T15:44:39.471Z,1.20
2023-03-31T15:47:14.758Z,1.30
2023-03-31T15:49:50.699Z,1.45
2023-03-31T15:52:30.243Z,1.65
2023-03-31T15:54:59.873Z,3.70
2023-03-31T15:57:36.324Z,2.40
2023-03-31T16:00:07.983Z,1.40
2023-03-31T16:02:46.356Z,1.40
2023-03-31T16:05:27.670Z,1.50
2023-03-31T16:07:57.257Z,1.20
2023-03-31T16:10:27.363Z,1.38
2023-03-31T16:12:59.569Z,1.13
2023-03-31T16:15:33.129Z,1.35
2023-03-31T16:18:03.698Z,1.35
2023-03-31T16:20:37.027Z,1.30
2023-03-31T16:23:14.689Z,1.60
2023-03-31T16:25:44.477Z,1.60
2023-03-31T16:28:16.558Z,1.30
2023-03-31T16:30:45.786Z,1.60
2023-03-31T16:33:15.669Z,1.60
2023-03-31T16:35:45.240Z,2.08
2023-03-31T16:38:16.188Z,1.35
2023-03-31T16:40:46.783Z,1.58
2023-03-31T16:43:16.434Z,1.80
2023-03-31T16:45:46.909Z,1.80
2023-03-31T16:48:16.716Z,1.70
2023-03-31T16:50:45.933Z,1.65
2023-03-31T16:53:14.087Z,1.65
2023-03-31T16:55:42.596Z,1.60
2023-03-31T16:58:12.574Z,1.55
2023-03-31T17:00:41.313Z,1.67
2023-03-31T17:03:10.910Z,1.95
2023-03-31T17:05:39.877Z,1.67
2023-03-31T17:08:08.329Z,1.60
2023-03-31T17:10:36.325Z,1.85
2023-03-31T17:13:04.257Z,1.55
2023-03-31T17:15:36.285Z,1.70
2023-03-31T17:18:05.118Z,1.67
2023-03-31T17:20:34.186Z,1.92
2023-03-31T17:23:02.418Z,4.20
2023-03-31T17:25:30.528Z,2.22
2023-03-31T17:28:00.510Z,3.50
2023-03-31T17:30:28.568Z,2.05
2023-03-31T17:32:58.322Z,1.88
2023-03-31T17:35:26.964Z,2.35
2023-03-31T17:37:55.337Z,2.35
2023-03-31T17:40:25.196Z,1.90
2023-03-31T17:42:54.565Z,1.80
2023-03-31T17:45:22.508Z,2.20
2023-03-31T17:47:51.628Z,2.10
2023-03-31T17:50:20.954Z,1.95
2023-03-31T17:52:48.944Z,1.80
2023-03-31T17:55:17.078Z,2.10
2023-03-31T17:57:44.951Z,2.00
2023-03-31T18:00:15.083Z,1.90
2023-03-31T18:02:43.706Z,1.60
2023-03-31T18:05:11.997Z,1.70
2023-03-31T18:07:41.342Z,1.30
2023-03-31T18:10:10.581Z,1.40
2023-03-31T18:12:38.684Z,1.20
2023-03-31T18:15:07.759Z,1.35
2023-03-31T18:17:36.423Z,1.05
2023-03-31T18:20:05.412Z,1.30
2023-03-31T18:22:33.574Z,1.20
2023-03-31T18:25:02.741Z,1.10
2023-03-31T18:27:30.822Z,1.15
2023-03-31T18:29:58.712Z,1.52
2023-03-31T18:32:28.373Z,1.27
2023-03-31T18:34:57.207Z,1.50
2023-03-31T18:37:25.149Z,1.20
2023-03-31T18:39:53.288Z,1.50
2023-03-31T18:42:25.139Z,1.55
2023-03-31T18:44:53.552Z,1.23
2023-03-31T18:47:22.279Z,1.50
2023-03-31T18:49:53.744Z,1.50
2023-03-31T18:52:22.100Z,1.42
2023-03-31T18:54:51.340Z,1.40
2023-03-31T18:57:19.358Z,1.50
2023-03-31T18:59:48.595Z,1.40
2023-03-31T19:02:18.125Z,1.30
2023-03-31T19:04:46.690Z,1.02
2023-03-31T19:07:14.865Z,1.50
2023-03-31T19:09:42.777Z,1.30
2023-03-31T19:12:11.757Z,1.30
2023-03-31T19:14:40.943Z,1.60
2023-03-31T19:17:10.152Z,1.50
2023-03-31T19:19:38.013Z,1.40
2023-03-31T19:22:06.000Z,1.73
2023-03-31T19:24:34.118Z,1.80
2023-03-31T19:27:02.542Z,2.08
2023-03-31T19:29:31.715Z,2.45
2023-03-31T19:32:00.068Z,2.08
2023-03-31T19:34:29.860Z,1.85
2023-03-31T19:36:57.774Z,2.17
2023-03-31T19:39:26.742Z,2.10
2023-03-31T19:41:54.693Z,1.63
2023-03-31T19:44:22.624Z,2.30
2023-03-31T19:46:50.586Z,1.90
2023-03-31T19:49:19.751Z,2.03
2023-03-31T19:51:48.951Z,2.22
2023-03-31T19:54:17.339Z,2.15
2023-03-31T19:56:45.463Z,3.35
2023-03-31T19:59:13.334Z,2.95
2023-03-31T20:01:41.353Z,2.00
2023-03-31T20:04:09.748Z,1.60
2023-03-31T20:06:37.765Z,1.55
2023-03-31T20:09:07.019Z,1.40
2023-03-31T20:11:35.552Z,1.90
2023-03-31T20:14:04.739Z,1.20
2023-03-31T20:16:32.895Z,1.45
2023-03-31T20:19:04.145Z,1.40
2023-03-31T20:21:35.256Z,1.40
2023-03-31T20:24:03.730Z,1.35
2023-03-31T20:26:35.425Z,1.30
2023-03-31T20:29:03.996Z,1.13
2023-03-31T20:31:36.114Z,1.40
2023-03-31T20:34:05.851Z,1.60
2023-03-31T20:36:33.760Z,1.20
2023-03-31T20:39:04.040Z,1.05
2023-03-31T20:41:32.111Z,1.10
2023-03-31T20:44:02.048Z,1.50
2023-03-31T20:46:30.028Z,1.77
2023-03-31T20:48:58.959Z,1.30
2023-03-31T20:51:30.158Z,1.40
2023-03-31T20:53:59.536Z,1.40
2023-03-31T20:56:29.203Z,1.40
2023-03-31T20:58:58.978Z,1.20
2023-03-31T21:01:30.942Z,1.10
2023-03-31T21:04:00.733Z,1.40
2023-03-31T21:06:30.965Z,1.38
2023-03-31T21:08:59.259Z,1.25
2023-03-31T21:11:27.852Z,1.42
2023-03-31T21:13:55.704Z,1.20
2023-03-31T21:16:25.224Z,1.30
2023-03-31T21:18:55.563Z,1.10
2023-03-31T21:21:24.657Z,1.40
2023-03-31T21:23:52.702Z,1.35
2023-03-31T21:26:21.767Z,1.60
2023-03-31T21:28:51.516Z,1.40
2023-03-31T21:31:22.383Z,1.30
2023-03-31T21:33:51.473Z,1.55
2023-03-31T21:36:23.214Z,1.55
2023-03-31T21:38:52.965Z,1.40
2023-03-31T21:41:22.603Z,1.70
2023-03-31T21:43:50.961Z,1.83
2023-03-31T21:46:21.372Z,1.50
2023-03-31T21:48:49.919Z,2.45
2023-03-31T21:51:18.279Z,2.10
2023-03-31T21:53:47.463Z,2.25
2023-03-31T21:56:15.357Z,2.00
2023-03-31T21:58:43.488Z,1.98
